Time;durP1;ratioP1;P1;durP2;ratioP2;P2;SDS_P1;SDS_P2;PMS_P1;PMS_P2;Temp;Humidity;BMP_temperature;BMP_pressure;BME280_temperature;BME280_humidity;BME280_pressure;Samples;Min_cycle;Max_cycle;Signal;HPM_P1;HPM_P2
2021/01/16 00:00:55;;;;;;;;;;;14.20;41.90;;;;;;2058668;28;19926;-75
2021/01/16 00:01:56;;;;;;;;;;;14.30;41.60;;;;;;2058567;28;19934;-75
2021/01/16 00:02:58;;;;;;;;;;;14.40;41.50;;;;;;2058946;28;19933;-74
2021/01/16 00:04:01;;;;;;;;;;;14.40;41.40;;;;;;2058619;28;21473;-75
2021/01/16 00:05:02;;;;;;;;;;;14.40;41.20;;;;;;2059153;28;19930;-75
2021/01/16 00:06:05;;;;;;;;;;;14.30;41.00;;;;;;2059264;28;20295;-75
2021/01/16 00:07:06;;;;;;;;;;;14.30;41.40;;;;;;2059047;28;20409;-75
2021/01/16 00:08:08;;;;;;;;;;;14.20;41.00;;;;;;2059294;28;20375;-75
2021/01/16 00:09:10;;;;;;;;;;;13.90;40.80;;;;;;2058989;28;19933;-75
2021/01/16 00:10:12;;;;;;;;;;;12.90;38.60;;;;;;2059480;28;19930;-75
2021/01/16 00:11:14;;;;;;;;;;;11.80;37.90;;;;;;2059074;28;19930;-75
2021/01/16 00:12:15;;;;;;;;;;;12.40;45.20;;;;;;2058653;28;19957;-75
2021/01/16 00:13:18;;;;;;;;;;;12.80;44.70;;;;;;2057931;28;19926;-75
2021/01/16 00:14:19;;;;;;;;;;;13.00;44.60;;;;;;2058171;28;19926;-75
2021/01/16 00:15:20;;;;;;;;;;;13.00;42.60;;;;;;2058804;28;20429;-75
2021/01/16 00:16:22;;;;;;;;;;;13.00;42.60;;;;;;2058770;28;19930;-75
2021/01/16 00:17:23;;;;;;;;;;;13.20;43.00;;;;;;2058560;28;19933;-75
2021/01/16 00:18:25;;;;;;;;;;;13.40;43.50;;;;;;2058433;28;20124;-75
2021/01/16 00:19:26;;;;;;;;;;;13.60;43.10;;;;;;2058020;28;19926;-74
2021/01/16 00:20:33;;;;;;;;;;;13.80;43.00;;;;;;2058158;28;19937;-75
2021/01/16 00:21:35;;;;;;;;;;;13.80;42.70;;;;;;2058060;28;19926;-74
2021/01/16 00:22:46;;;;;;;;;;;13.90;42.30;;;;;;2059047;28;19934;-75
2021/01/16 00:23:47;;;;;;;;;;;13.60;41.40;;;;;;2058665;28;19930;-74
2021/01/16 00:24:48;;;;;;;;;;;13.80;41.80;;;;;;2058544;28;19952;-75
2021/01/16 00:25:50;;;;;;;;;;;13.70;41.60;;;;;;2057570;28;20437;-75
2021/01/16 00:26:51;;;;;;;;;;;13.50;42.00;;;;;;2058293;28;19937;-75
2021/01/16 00:27:53;;;;;;;;;;;13.70;41.80;;;;;;2057932;28;20405;-75
2021/01/16 00:28:55;;;;;;;;;;;13.10;41.80;;;;;;2058194;28;20409;-74
2021/01/16 00:29:56;;;;;;;;;;;13.20;43.40;;;;;;2058418;28;19937;-74
2021/01/16 00:30:58;;;;;;;;;;;13.40;42.80;;;;;;2057620;28;19933;-74
2021/01/16 00:31:59;;;;;;;;;;;13.40;43.50;;;;;;2057805;28;19937;-74
2021/01/16 00:33:02;;;;;;;;;;;13.60;43.30;;;;;;2058074;28;19933;-75
2021/01/16 00:34:04;;;;;;;;;;;13.70;43.00;;;;;;2059611;28;19937;-75
2021/01/16 00:35:06;;;;;;;;;;;13.80;42.50;;;;;;2061060;28;19934;-76
2021/01/16 00:36:08;;;;;;;;;;;13.70;41.50;;;;;;2060391;28;19927;-75
2021/01/16 00:37:10;;;;;;;;;;;14.00;42.40;;;;;;2058737;28;19933;-74
2021/01/16 00:38:12;;;;;;;;;;;14.10;42.30;;;;;;2058073;28;19977;-74
2021/01/16 00:39:13;;;;;;;;;;;13.80;39.20;;;;;;2058192;28;19926;-74
2021/01/16 00:40:15;;;;;;;;;;;13.60;42.10;;;;;;2058193;28;20383;-74
2021/01/16 00:41:17;;;;;;;;;;;13.60;41.30;;;;;;2057744;28;19934;-74
2021/01/16 00:42:18;;;;;;;;;;;13.50;42.50;;;;;;2057671;28;19934;-74
2021/01/16 00:43:19;;;;;;;;;;;13.60;43.00;;;;;;2058485;28;20302;-74
2021/01/16 00:44:21;;;;;;;;;;;13.70;42.80;;;;;;2058733;28;20177;-74
2021/01/16 00:45:23;;;;;;;;;;;13.90;42.60;;;;;;2065666;28;20321;-74
2021/01/16 00:46:24;;;;;;;;;;;14.00;42.40;;;;;;2065741;28;19926;-75
2021/01/16 00:47:26;;;;;;;;;;;14.00;41.10;;;;;;2065300;28;19926;-75
2021/01/16 00:48:28;;;;;;;;;;;14.00;42.10;;;;;;2065651;28;19926;-75
2021/01/16 00:49:29;;;;;;;;;;;14.00;41.90;;;;;;2061358;28;19926;-75
2021/01/16 00:50:31;;;;;;;;;;;13.70;40.30;;;;;;2057872;28;19930;-75
2021/01/16 00:51:32;;;;;;;;;;;13.50;42.30;;;;;;2057841;28;19930;-75
2021/01/16 00:52:35;;;;;;;;;;;13.70;42.60;;;;;;2057991;28;19933;-75
2021/01/16 00:53:36;;;;;;;;;;;13.80;42.10;;;;;;2057204;28;19927;-75
2021/01/16 00:54:38;;;;;;;;;;;13.90;42.40;;;;;;2056962;28;19934;-75
2021/01/16 00:55:39;;;;;;;;;;;13.90;42.10;;;;;;2057353;28;20314;-74
2021/01/16 00:56:41;;;;;;;;;;;13.90;42.10;;;;;;2057325;28;19926;-75
2021/01/16 00:57:42;;;;;;;;;;;13.90;42.30;;;;;;2057420;28;19930;-75
2021/01/16 00:58:44;;;;;;;;;;;14.00;41.80;;;;;;2057169;28;20382;-74
2021/01/16 00:59:45;;;;;;;;;;;13.90;41.10;;;;;;2057317;28;19961;-74
2021/01/16 01:00:47;;;;;;;;;;;14.00;42.10;;;;;;2057330;28;19933;-74
2021/01/16 01:01:52;;;;;;;;;;;14.10;42.00;;;;;;2056457;28;20109;-74
2021/01/16 01:02:54;;;;;;;;;;;14.10;41.90;;;;;;2056425;28;19926;-75
2021/01/16 01:03:55;;;;;;;;;;;14.20;41.80;;;;;;2056407;28;20125;-75
2021/01/16 01:04:57;;;;;;;;;;;14.30;41.70;;;;;;2056551;28;19933;-75
2021/01/16 01:05:58;;;;;;;;;;;14.30;41.60;;;;;;2056335;28;19926;-75
2021/01/16 01:07:00;;;;;;;;;;;14.30;41.50;;;;;;2056614;28;19926;-75
2021/01/16 01:08:03;;;;;;;;;;;14.10;41.10;;;;;;2056938;28;20437;-75
2021/01/16 01:09:04;;;;;;;;;;;14.20;41.00;;;;;;2057139;28;20379;-75
2021/01/16 01:10:07;;;;;;;;;;;14.00;41.60;;;;;;2057178;28;19937;-75
2021/01/16 01:11:08;;;;;;;;;;;14.10;41.40;;;;;;2056521;28;19926;-74
2021/01/16 01:12:10;;;;;;;;;;;14.20;41.40;;;;;;2056466;28;19926;-75
2021/01/16 01:13:12;;;;;;;;;;;14.10;41.30;;;;;;2056149;28;20394;-74
2021/01/16 01:14:14;;;;;;;;;;;14.00;40.70;;;;;;2056473;28;19988;-75
2021/01/16 01:15:15;;;;;;;;;;;13.90;41.80;;;;;;2056332;28;19950;-75
2021/01/16 01:16:17;;;;;;;;;;;13.80;41.60;;;;;;2056375;28;19926;-75
2021/01/16 01:17:18;;;;;;;;;;;13.80;42.10;;;;;;2056427;28;19930;-74
2021/01/16 01:18:20;;;;;;;;;;;13.70;41.80;;;;;;2056426;28;19933;-75
2021/01/16 01:19:21;;;;;;;;;;;13.50;42.30;;;;;;2056494;28;19942;-74
2021/01/16 01:20:23;;;;;;;;;;;13.90;42.40;;;;;;2056303;28;20346;-74
2021/01/16 01:21:24;;;;;;;;;;;14.10;42.10;;;;;;2056515;28;19926;-74
2021/01/16 01:22:30;;;;;;;;;;;14.10;41.90;;;;;;2056521;28;20411;-75
2021/01/16 01:23:33;;;;;;;;;;;14.10;41.50;;;;;;2057224;28;19926;-75
2021/01/16 01:24:34;;;;;;;;;;;14.10;41.90;;;;;;2057029;28;20288;-74
2021/01/16 01:25:35;;;;;;;;;;;13.80;41.80;;;;;;2057424;28;20247;-74
2021/01/16 01:26:37;;;;;;;;;;;13.90;41.90;;;;;;2056841;28;19933;-75
2021/01/16 01:27:39;;;;;;;;;;;14.00;42.00;;;;;;2056589;28;19927;-74
2021/01/16 01:28:41;;;;;;;;;;;14.00;42.00;;;;;;2057090;28;19926;-74
2021/01/16 01:29:43;;;;;;;;;;;14.00;41.90;;;;;;2056415;28;19926;-74
2021/01/16 01:30:44;;;;;;;;;;;13.90;41.60;;;;;;2056392;28;19934;-75
2021/01/16 01:31:46;;;;;;;;;;;13.60;40.30;;;;;;2057006;28;19976;-75
2021/01/16 01:32:48;;;;;;;;;;;13.40;41.70;;;;;;2057110;28;19934;-74
2021/01/16 01:33:49;;;;;;;;;;;13.40;41.50;;;;;;2057095;28;19925;-74
2021/01/16 01:34:50;;;;;;;;;;;13.40;42.70;;;;;;2057269;28;19957;-75
2021/01/16 01:35:52;;;;;;;;;;;13.30;41.90;;;;;;2056605;28;20006;-74
2021/01/16 01:36:54;;;;;;;;;;;13.50;42.90;;;;;;2056471;28;19927;-75
2021/01/16 01:37:55;;;;;;;;;;;13.50;42.50;;;;;;2056588;28;19942;-75
2021/01/16 01:38:58;;;;;;;;;;;13.50;41.30;;;;;;2064931;28;20263;-74
2021/01/16 01:39:59;;;;;;;;;;;13.50;42.90;;;;;;2072538;28;19937;-75
2021/01/16 01:41:01;;;;;;;;;;;13.70;42.90;;;;;;2056626;28;20339;-75
2021/01/16 01:42:02;;;;;;;;;;;13.80;42.70;;;;;;2057537;28;19929;-75
2021/01/16 01:43:03;;;;;;;;;;;13.80;42.60;;;;;;2058673;28;19933;-74
2021/01/16 01:44:05;;;;;;;;;;;13.90;42.00;;;;;;2057427;28;20291;-74
2021/01/16 01:45:08;;;;;;;;;;;13.60;42.30;;;;;;2062084;28;19926;-75
2021/01/16 01:46:10;;;;;;;;;;;13.50;41.20;;;;;;2073219;28;19925;-75
2021/01/16 01:47:11;;;;;;;;;;;13.60;42.20;;;;;;2072975;28;19925;-75
2021/01/16 01:48:13;;;;;;;;;;;13.50;42.40;;;;;;2065929;28;19968;-74
2021/01/16 01:49:14;;;;;;;;;;;13.50;43.20;;;;;;2063625;28;19934;-74
2021/01/16 01:50:16;;;;;;;;;;;12.90;42.30;;;;;;2057840;28;20383;-75
2021/01/16 01:51:22;;;;;;;;;;;12.50;42.60;;;;;;2056869;28;19926;-75
2021/01/16 01:52:26;;;;;;;;;;;12.80;44.90;;;;;;2056786;28;20291;-75
2021/01/16 01:53:28;;;;;;;;;;;13.10;44.40;;;;;;2057617;28;19980;-75
2021/01/16 01:54:32;;;;;;;;;;;13.30;44.10;;;;;;2057833;28;20425;-76
2021/01/16 01:55:35;;;;;;;;;;;13.50;43.40;;;;;;2057410;28;19961;-75
2021/01/16 01:56:45;;;;;;;;;;;13.60;43.40;;;;;;2057195;28;20125;-74
2021/01/16 01:57:49;;;;;;;;;;;13.50;42.50;;;;;;2057436;28;19926;-75
2021/01/16 01:58:51;;;;;;;;;;;13.60;43.10;;;;;;2057933;28;19926;-74
2021/01/16 01:59:54;;;;;;;;;;;13.60;42.60;;;;;;2057379;28;19926;-74
2021/01/16 02:00:56;;;;;;;;;;;13.60;42.30;;;;;;2057228;28;20351;-75
2021/01/16 02:01:58;;;;;;;;;;;13.70;42.90;;;;;;2057228;28;19926;-75
2021/01/16 02:03:01;;;;;;;;;;;13.60;41.20;;;;;;2057575;28;19926;-75
2021/01/16 02:04:04;;;;;;;;;;;13.60;41.60;;;;;;2056245;28;20414;-74
2021/01/16 02:05:07;;;;;;;;;;;12.80;41.30;;;;;;2064609;28;19926;-74
2021/01/16 02:06:09;;;;;;;;;;;13.20;42.70;;;;;;2071342;28;20369;-74
2021/01/16 02:07:26;;;;;;;;;;;13.10;43.10;;;;;;2056157;28;19927;-74
2021/01/16 02:08:27;;;;;;;;;;;13.10;42.50;;;;;;2056493;28;19934;-75
2021/01/16 02:09:29;;;;;;;;;;;12.70;40.80;;;;;;2058106;28;19933;-75
2021/01/16 02:10:33;;;;;;;;;;;12.00;44.20;;;;;;2058623;28;19949;-75
2021/01/16 02:11:34;;;;;;;;;;;12.00;45.70;;;;;;2057813;28;20343;-74
2021/01/16 02:12:37;;;;;;;;;;;12.30;45.90;;;;;;2057800;28;19926;-75
2021/01/16 02:13:39;;;;;;;;;;;12.50;45.00;;;;;;2058668;28;20405;-74
2021/01/16 02:14:42;;;;;;;;;;;12.70;45.10;;;;;;2059361;28;19941;-74
2021/01/16 02:15:48;;;;;;;;;;;12.70;43.40;;;;;;2061461;28;19933;-75
2021/01/16 02:16:51;;;;;;;;;;;12.80;44.40;;;;;;2061363;28;19937;-75
2021/01/16 02:17:54;;;;;;;;;;;12.80;43.60;;;;;;2058712;28;20428;-74
2021/01/16 02:18:57;;;;;;;;;;;12.90;44.20;;;;;;2057626;28;19926;-74
2021/01/16 02:20:04;;;;;;;;;;;13.00;44.60;;;;;;2057801;28;19985;-74
2021/01/16 02:21:07;;;;;;;;;;;13.20;44.00;;;;;;2057770;28;19930;-75
2021/01/16 02:22:09;;;;;;;;;;;13.40;44.00;;;;;;2057552;28;20398;-74
2021/01/16 02:23:32;;;;;;;;;;;13.20;43.40;;;;;;2058100;28;19926;-74
2021/01/16 02:24:39;;;;;;;;;;;13.30;44.10;;;;;;2058284;28;19926;-74
2021/01/16 02:26:04;;;;;;;;;;;13.50;43.60;;;;;;2057707;28;20323;-73
2021/01/16 02:27:28;;;;;;;;;;;13.40;43.00;;;;;;2057790;28;20545;-75
2021/01/16 02:28:32;;;;;;;;;;;13.10;43.50;;;;;;2058254;28;20391;-75
2021/01/16 02:29:34;;;;;;;;;;;13.30;43.60;;;;;;2058487;28;19926;-74
2021/01/16 02:30:36;;;;;;;;;;;13.10;41.90;;;;;;2058589;28;19926;-75
2021/01/16 02:31:40;;;;;;;;;;;12.90;42.50;;;;;;2058641;28;19926;-74
2021/01/16 02:32:43;;;;;;;;;;;13.20;44.00;;;;;;2058361;28;19927;-75
2021/01/16 02:33:46;;;;;;;;;;;13.40;43.60;;;;;;2058532;28;19926;-75
2021/01/16 02:34:47;;;;;;;;;;;13.30;43.20;;;;;;2058606;28;19933;-74
2021/01/16 02:35:53;;;;;;;;;;;13.30;43.60;;;;;;2058328;28;20301;-75
2021/01/16 02:37:19;;;;;;;;;;;13.40;43.30;;;;;;2058655;28;19933;-75
2021/01/16 02:38:25;;;;;;;;;;;13.60;43.40;;;;;;2058431;28;19926;-75
2021/01/16 02:39:30;;;;;;;;;;;13.70;43.00;;;;;;2057977;28;19981;-75
2021/01/16 02:40:34;;;;;;;;;;;13.60;42.20;;;;;;2058208;28;19926;-75
2021/01/16 02:41:42;;;;;;;;;;;13.70;43.00;;;;;;2058734;28;19937;-73
2021/01/16 02:43:00;;;;;;;;;;;13.80;43.00;;;;;;2059112;28;19926;-75
2021/01/16 02:44:08;;;;;;;;;;;13.80;42.50;;;;;;2058938;28;19933;-75
2021/01/16 02:45:11;;;;;;;;;;;13.70;42.90;;;;;;2064484;28;19926;-75
2021/01/16 02:46:19;;;;;;;;;;;13.90;42.90;;;;;;2067346;28;20331;-75
2021/01/16 02:47:23;;;;;;;;;;;13.90;42.70;;;;;;2067420;28;19926;-75
2021/01/16 02:48:26;;;;;;;;;;;13.80;42.70;;;;;;2067033;28;19933;-73
2021/01/16 02:49:36;;;;;;;;;;;13.60;42.40;;;;;;2062584;28;20387;-72
2021/01/16 02:50:39;;;;;;;;;;;13.80;42.50;;;;;;2059155;28;19937;-73
2021/01/16 02:51:46;;;;;;;;;;;13.80;41.40;;;;;;2059043;28;19933;-72
2021/01/16 02:52:48;;;;;;;;;;;13.60;42.50;;;;;;2058728;28;19926;-75
2021/01/16 02:53:50;;;;;;;;;;;13.60;42.50;;;;;;2058952;28;19926;-73
2021/01/16 02:54:52;;;;;;;;;;;13.70;42.50;;;;;;2058254;28;19934;-72
2021/01/16 02:55:53;;;;;;;;;;;13.80;42.70;;;;;;2058345;28;19949;-72
2021/01/16 02:56:55;;;;;;;;;;;13.80;42.60;;;;;;2058229;28;19933;-73
2021/01/16 02:57:57;;;;;;;;;;;13.60;42.00;;;;;;2058259;28;20209;-73
2021/01/16 02:58:59;;;;;;;;;;;13.70;42.80;;;;;;2058870;28;19926;-73
2021/01/16 03:00:01;;;;;;;;;;;13.60;42.60;;;;;;2058769;28;19926;-73
2021/01/16 03:01:02;;;;;;;;;;;13.60;42.70;;;;;;2058809;28;19926;-75
2021/01/16 03:02:05;;;;;;;;;;;13.80;42.70;;;;;;2058434;28;20375;-75
2021/01/16 03:03:07;;;;;;;;;;;13.90;43.10;;;;;;2057790;28;20327;-73
2021/01/16 03:04:08;;;;;;;;;;;14.00;42.00;;;;;;2057711;28;19960;-73
2021/01/16 03:05:10;;;;;;;;;;;14.00;41.80;;;;;;2057712;28;20370;-75
2021/01/16 03:06:11;;;;;;;;;;;13.90;41.90;;;;;;2057827;28;19926;-75
2021/01/16 03:07:15;;;;;;;;;;;14.00;42.00;;;;;;2058796;28;19926;-74
2021/01/16 03:08:17;;;;;;;;;;;14.00;42.30;;;;;;2058426;28;19930;-75
2021/01/16 03:09:18;;;;;;;;;;;13.80;41.60;;;;;;2058655;28;20366;-74
2021/01/16 03:10:21;;;;;;;;;;;13.90;42.50;;;;;;2059517;28;19926;-75
2021/01/16 03:11:24;;;;;;;;;;;14.00;41.70;;;;;;2059505;28;19937;-74
2021/01/16 03:12:25;;;;;;;;;;;13.70;41.40;;;;;;2059274;28;19953;-74
2021/01/16 03:13:29;;;;;;;;;;;13.90;42.20;;;;;;2059301;28;19926;-75
2021/01/16 03:14:31;;;;;;;;;;;14.00;42.40;;;;;;2059068;28;19930;-74
2021/01/16 03:15:33;;;;;;;;;;;13.60;41.00;;;;;;2059324;28;20382;-74
2021/01/16 03:16:37;;;;;;;;;;;13.40;42.70;;;;;;2059202;28;20386;-74
2021/01/16 03:17:44;;;;;;;;;;;13.60;42.20;;;;;;2057759;28;19926;-74
2021/01/16 03:18:48;;;;;;;;;;;13.70;43.50;;;;;;2057417;28;19926;-74
2021/01/16 03:19:50;;;;;;;;;;;14.00;42.20;;;;;;2057554;28;19926;-74
2021/01/16 03:20:53;;;;;;;;;;;13.90;41.80;;;;;;2058364;28;19996;-75
2021/01/16 03:21:54;;;;;;;;;;;14.00;42.10;;;;;;2058149;28;19926;-75
2021/01/16 03:22:56;;;;;;;;;;;13.70;40.90;;;;;;2057428;28;19938;-75
2021/01/16 03:23:58;;;;;;;;;;;13.70;42.70;;;;;;2057674;28;19926;-75
2021/01/16 03:24:59;;;;;;;;;;;13.80;41.90;;;;;;2058256;28;20268;-74
2021/01/16 03:26:01;;;;;;;;;;;13.80;41.30;;;;;;2058083;28;19977;-75
2021/01/16 03:27:02;;;;;;;;;;;13.30;40.70;;;;;;2058082;28;19985;-73
2021/01/16 03:28:04;;;;;;;;;;;13.60;42.10;;;;;;2057959;28;19926;-73
2021/01/16 03:29:06;;;;;;;;;;;13.70;42.00;;;;;;2058133;28;19934;-75
2021/01/16 03:30:08;;;;;;;;;;;13.50;41.70;;;;;;2058136;28;19933;-75
2021/01/16 03:31:10;;;;;;;;;;;13.40;42.20;;;;;;2058076;28;19930;-75
2021/01/16 03:32:11;;;;;;;;;;;13.10;42.60;;;;;;2058350;28;20026;-75
2021/01/16 03:33:13;;;;;;;;;;;13.40;43.40;;;;;;2057936;28;20367;-75
2021/01/16 03:34:14;;;;;;;;;;;13.50;42.80;;;;;;2057607;28;19926;-74
2021/01/16 03:35:16;;;;;;;;;;;13.20;42.00;;;;;;2057265;28;19934;-74
2021/01/16 03:36:18;;;;;;;;;;;13.50;42.50;;;;;;2057584;28;19926;-75
2021/01/16 03:37:20;;;;;;;;;;;13.50;43.10;;;;;;2058128;28;19933;-75
2021/01/16 03:38:23;;;;;;;;;;;13.60;42.80;;;;;;2058331;28;19926;-75
2021/01/16 03:39:25;;;;;;;;;;;13.70;42.40;;;;;;2058242;28;19926;-75
2021/01/16 03:40:26;;;;;;;;;;;13.20;40.20;;;;;;2058138;28;20383;-75
2021/01/16 03:41:27;;;;;;;;;;;13.50;43.00;;;;;;2058170;28;19927;-75
2021/01/16 03:42:29;;;;;;;;;;;13.50;42.90;;;;;;2057789;28;19934;-74
2021/01/16 03:43:30;;;;;;;;;;;13.50;42.80;;;;;;2057564;28;19933;-74
2021/01/16 03:44:32;;;;;;;;;;;13.70;42.50;;;;;;2058026;28;20181;-75
2021/01/16 03:45:34;;;;;;;;;;;13.70;40.40;;;;;;2066436;28;19932;-73
2021/01/16 03:46:36;;;;;;;;;;;13.50;42.30;;;;;;2074005;28;19926;-75
2021/01/16 03:47:38;;;;;;;;;;;13.40;41.40;;;;;;2065912;28;19925;-74
2021/01/16 03:48:41;;;;;;;;;;;13.50;43.00;;;;;;2066176;28;19926;-75
2021/01/16 03:49:42;;;;;;;;;;;13.60;42.60;;;;;;2060856;28;19930;-75
2021/01/16 03:50:43;;;;;;;;;;;13.50;42.50;;;;;;2059295;28;19926;-75
2021/01/16 03:51:45;;;;;;;;;;;13.40;39.00;;;;;;2059191;28;19926;-75
2021/01/16 03:52:46;;;;;;;;;;;13.30;42.70;;;;;;2059672;28;20299;-75
2021/01/16 03:53:48;;;;;;;;;;;13.60;43.00;;;;;;2059416;28;19933;-75
2021/01/16 03:54:49;;;;;;;;;;;13.40;42.40;;;;;;2058983;28;19934;-74
2021/01/16 03:55:51;;;;;;;;;;;13.00;41.00;;;;;;2059407;28;19934;-75
2021/01/16 03:56:52;;;;;;;;;;;13.10;42.40;;;;;;2060940;28;19930;-75
2021/01/16 03:57:54;;;;;;;;;;;13.20;43.30;;;;;;2060707;28;19926;-75
2021/01/16 03:58:55;;;;;;;;;;;13.20;43.20;;;;;;2059936;28;19926;-75
2021/01/16 03:59:58;;;;;;;;;;;13.10;42.70;;;;;;2058509;28;19949;-75
2021/01/16 04:00:59;;;;;;;;;;;13.20;43.40;;;;;;2058516;28;19926;-75
2021/01/16 04:02:00;;;;;;;;;;;13.40;43.40;;;;;;2057447;28;19926;-75
2021/01/16 04:03:02;;;;;;;;;;;13.40;42.30;;;;;;2057854;28;20355;-74
2021/01/16 04:04:04;;;;;;;;;;;13.20;42.20;;;;;;2057608;28;20329;-74
2021/01/16 04:05:06;;;;;;;;;;;13.20;43.00;;;;;;2057977;28;19930;-74
2021/01/16 04:06:13;;;;;;;;;;;12.40;43.00;;;;;;2057687;28;19933;-75
2021/01/16 04:07:15;;;;;;;;;;;12.80;44.10;;;;;;2057759;28;19926;-75
2021/01/16 04:08:16;;;;;;;;;;;13.00;43.90;;;;;;2057502;28;19926;-75
2021/01/16 04:09:18;;;;;;;;;;;13.10;43.90;;;;;;2057449;28;20370;-75
2021/01/16 04:10:19;;;;;;;;;;;13.30;42.90;;;;;;2057778;28;19944;-74
2021/01/16 04:11:21;;;;;;;;;;;13.40;43.20;;;;;;2057456;28;20371;-75
2021/01/16 04:12:22;;;;;;;;;;;13.40;43.10;;;;;;2057750;28;19930;-74
2021/01/16 04:13:24;;;;;;;;;;;13.40;42.70;;;;;;2057829;28;19933;-75
2021/01/16 04:14:25;;;;;;;;;;;13.50;41.90;;;;;;2057730;28;20305;-74
2021/01/16 04:15:27;;;;;;;;;;;13.30;42.90;;;;;;2057764;28;19926;-75
2021/01/16 04:16:29;;;;;;;;;;;13.30;42.60;;;;;;2057944;28;19933;-74
2021/01/16 04:17:30;;;;;;;;;;;13.20;42.20;;;;;;2057681;28;19993;-75
2021/01/16 04:18:32;;;;;;;;;;;13.40;43.00;;;;;;2057786;28;20021;-75
2021/01/16 04:19:33;;;;;;;;;;;13.50;42.20;;;;;;2057974;28;20097;-75
2021/01/16 04:20:35;;;;;;;;;;;13.30;41.70;;;;;;2057874;28;19926;-74
2021/01/16 04:21:36;;;;;;;;;;;13.40;42.80;;;;;;2057712;28;19949;-75
2021/01/16 04:22:39;;;;;;;;;;;13.30;42.90;;;;;;2057788;28;19926;-75
2021/01/16 04:23:40;;;;;;;;;;;13.10;42.40;;;;;;2057066;28;19933;-75
2021/01/16 04:24:42;;;;;;;;;;;13.10;42.40;;;;;;2057277;28;19933;-75
2021/01/16 04:25:43;;;;;;;;;;;12.90;42.80;;;;;;2057708;28;19953;-75
2021/01/16 04:26:46;;;;;;;;;;;13.10;43.30;;;;;;2057911;28;20426;-75
2021/01/16 04:27:47;;;;;;;;;;;13.10;43.80;;;;;;2057703;28;19934;-75
2021/01/16 04:28:49;;;;;;;;;;;13.30;43.40;;;;;;2057623;28;20374;-75
2021/01/16 04:29:50;;;;;;;;;;;13.30;43.30;;;;;;2057799;28;20016;-75
2021/01/16 04:30:54;;;;;;;;;;;13.20;41.10;;;;;;2058268;28;19930;-75
2021/01/16 04:31:55;;;;;;;;;;;13.30;43.30;;;;;;2057957;28;19958;-74
2021/01/16 04:32:57;;;;;;;;;;;12.80;42.90;;;;;;2058622;28;19926;-74
2021/01/16 04:33:58;;;;;;;;;;;12.60;42.00;;;;;;2057883;28;20292;-75
2021/01/16 04:35:00;;;;;;;;;;;12.70;43.90;;;;;;2058300;28;19926;-75
2021/01/16 04:36:01;;;;;;;;;;;13.00;44.10;;;;;;2058786;28;20498;-75
2021/01/16 04:37:03;;;;;;;;;;;13.20;41.80;;;;;;2058715;28;20429;-74
2021/01/16 04:38:05;;;;;;;;;;;12.40;40.90;;;;;;2058751;28;19926;-75
2021/01/16 04:39:06;;;;;;;;;;;12.20;44.70;;;;;;2058647;28;20379;-74
2021/01/16 04:40:08;;;;;;;;;;;12.00;41.70;;;;;;2058814;28;20306;-75
2021/01/16 04:41:09;;;;;;;;;;;11.40;40.80;;;;;;2058047;28;19926;-75
2021/01/16 04:42:13;;;;;;;;;;;11.30;46.70;;;;;;2057740;28;19933;-75
2021/01/16 04:43:14;;;;;;;;;;;11.80;47.20;;;;;;2057986;28;19933;-75
2021/01/16 04:44:16;;;;;;;;;;;12.20;46.20;;;;;;2057509;28;19926;-75
2021/01/16 04:45:18;;;;;;;;;;;12.60;43.50;;;;;;2064193;28;19926;-75
2021/01/16 04:46:20;;;;;;;;;;;12.10;42.70;;;;;;2065631;28;20398;-74
2021/01/16 04:47:23;;;;;;;;;;;11.60;40.10;;;;;;2065194;28;20008;-74
2021/01/16 04:48:26;;;;;;;;;;;11.00;45.50;;;;;;2065686;28;19933;-75
2021/01/16 04:49:27;;;;;;;;;;;11.30;46.70;;;;;;2065218;28;20458;-75
2021/01/16 04:50:31;;;;;;;;;;;11.70;46.60;;;;;;2057647;28;19960;-75
2021/01/16 04:51:33;;;;;;;;;;;12.00;46.10;;;;;;2065505;28;19930;-75
2021/01/16 04:52:36;;;;;;;;;;;12.10;46.20;;;;;;2065882;28;19929;-74
2021/01/16 04:53:38;;;;;;;;;;;12.40;44.20;;;;;;2065273;28;19926;-75
2021/01/16 04:54:42;;;;;;;;;;;12.50;45.10;;;;;;2065331;28;19932;-74
2021/01/16 04:55:45;;;;;;;;;;;12.70;44.90;;;;;;2065418;28;19926;-75
2021/01/16 04:56:46;;;;;;;;;;;12.90;42.10;;;;;;2065396;28;19949;-75
2021/01/16 04:57:48;;;;;;;;;;;12.40;42.50;;;;;;2066086;28;19972;-75
2021/01/16 04:58:49;;;;;;;;;;;12.40;44.50;;;;;;2066179;28;19933;-75
2021/01/16 04:59:53;;;;;;;;;;;12.70;44.90;;;;;;2066372;28;19926;-75
2021/01/16 05:00:55;;;;;;;;;;;13.00;44.60;;;;;;2065737;28;20279;-75
2021/01/16 05:01:59;;;;;;;;;;;13.30;43.90;;;;;;2065555;28;20430;-75
2021/01/16 05:03:05;;;;;;;;;;;13.40;43.60;;;;;;2065650;28;20444;-74
2021/01/16 05:04:08;;;;;;;;;;;13.50;43.10;;;;;;2065836;28;19933;-74
2021/01/16 05:05:10;;;;;;;;;;;13.50;43.00;;;;;;2065257;28;19925;-75
2021/01/16 05:06:12;;;;;;;;;;;13.50;41.90;;;;;;2065666;28;19925;-74
2021/01/16 05:07:15;;;;;;;;;;;13.50;42.70;;;;;;2065949;28;19926;-74
2021/01/16 05:08:18;;;;;;;;;;;13.40;42.70;;;;;;2066191;28;19926;-74
2021/01/16 05:09:20;;;;;;;;;;;13.50;42.40;;;;;;2066125;28;19926;-74
2021/01/16 05:10:22;;;;;;;;;;;13.60;42.60;;;;;;2066550;28;19926;-74
2021/01/16 05:11:34;;;;;;;;;;;13.60;41.90;;;;;;2066255;28;19926;-75
2021/01/16 05:12:54;;;;;;;;;;;13.50;42.40;;;;;;2066661;28;19926;-75
2021/01/16 05:13:56;;;;;;;;;;;13.60;41.80;;;;;;2066634;28;19932;-75
2021/01/16 05:15:02;;;;;;;;;;;13.50;42.10;;;;;;2065706;28;19933;-75
2021/01/16 05:16:10;;;;;;;;;;;13.60;42.40;;;;;;2064638;28;20298;-75
2021/01/16 05:17:13;;;;;;;;;;;13.60;42.50;;;;;;2064556;28;20433;-76
2021/01/16 05:18:15;;;;;;;;;;;13.80;42.40;;;;;;2072809;28;19932;-75
2021/01/16 05:19:19;;;;;;;;;;;13.90;41.50;;;;;;2072581;28;20025;-74
2021/01/16 05:20:21;;;;;;;;;;;13.80;42.00;;;;;;2064591;28;19925;-75
2021/01/16 05:21:22;;;;;;;;;;;14.00;42.00;;;;;;2064545;28;19925;-75
2021/01/16 05:22:24;;;;;;;;;;;14.00;41.90;;;;;;2065250;28;19930;-74
2021/01/16 05:23:25;;;;;;;;;;;14.00;41.70;;;;;;2065214;28;19933;-74
2021/01/16 05:24:27;;;;;;;;;;;14.00;41.70;;;;;;2064731;28;19933;-75
2021/01/16 05:25:29;;;;;;;;;;;13.90;41.10;;;;;;2064518;28;19926;-74
2021/01/16 05:26:33;;;;;;;;;;;13.80;41.60;;;;;;2064597;28;20283;-75
2021/01/16 05:27:35;;;;;;;;;;;14.00;41.70;;;;;;2065236;28;19926;-75
2021/01/16 05:28:37;;;;;;;;;;;14.10;41.70;;;;;;2065387;28;19925;-75
2021/01/16 05:29:40;;;;;;;;;;;14.00;41.60;;;;;;2065409;28;19979;-75
2021/01/16 05:30:48;;;;;;;;;;;14.00;42.10;;;;;;2064854;28;19926;-75
2021/01/16 05:31:51;;;;;;;;;;;13.90;40.10;;;;;;2064709;28;20375;-75
2021/01/16 05:32:53;;;;;;;;;;;13.80;41.40;;;;;;2064990;28;20416;-74
2021/01/16 05:33:56;;;;;;;;;;;13.90;41.70;;;;;;2065148;28;20373;-74
2021/01/16 05:35:16;;;;;;;;;;;14.10;41.80;;;;;;2065668;28;19925;-74
2021/01/16 05:36:18;;;;;;;;;;;13.90;40.20;;;;;;2066017;28;19981;-74
2021/01/16 05:37:19;;;;;;;;;;;13.30;40.30;;;;;;2066285;28;19926;-74
2021/01/16 05:38:26;;;;;;;;;;;13.40;42.40;;;;;;2068218;28;19932;-75
2021/01/16 05:39:28;;;;;;;;;;;13.40;41.60;;;;;;2069066;28;19936;-75
2021/01/16 05:40:30;;;;;;;;;;;13.10;39.90;;;;;;2067510;28;19933;-74
2021/01/16 05:41:33;;;;;;;;;;;12.70;41.70;;;;;;2065206;28;19925;-74
2021/01/16 05:42:35;;;;;;;;;;;12.70;41.50;;;;;;2065199;28;19933;-74
2021/01/16 05:43:37;;;;;;;;;;;13.00;42.80;;;;;;2063847;28;20001;-74
2021/01/16 05:44:39;;;;;;;;;;;13.10;42.80;;;;;;2064464;28;20020;-74
2021/01/16 05:45:41;;;;;;;;;;;12.50;41.60;;;;;;2065158;28;20429;-74
2021/01/16 05:46:43;;;;;;;;;;;12.80;43.40;;;;;;2065667;28;19926;-74
2021/01/16 05:47:48;;;;;;;;;;;12.90;42.80;;;;;;2065736;28;19933;-74
2021/01/16 05:48:55;;;;;;;;;;;12.90;43.10;;;;;;2065823;28;19925;-74
2021/01/16 05:49:57;;;;;;;;;;;13.00;41.40;;;;;;2066251;28;19961;-74
2021/01/16 05:51:00;;;;;;;;;;;12.70;41.40;;;;;;2065169;28;19933;-75
2021/01/16 05:52:06;;;;;;;;;;;12.90;42.60;;;;;;2065444;28;19926;-74
2021/01/16 05:53:07;;;;;;;;;;;13.20;43.30;;;;;;2066155;28;19933;-74
2021/01/16 05:54:09;;;;;;;;;;;12.70;37.30;;;;;;2065643;28;20161;-74
2021/01/16 05:55:12;;;;;;;;;;;12.40;42.50;;;;;;2065405;28;19926;-74
2021/01/16 05:56:14;;;;;;;;;;;11.90;38.80;;;;;;2066165;28;20478;-74
2021/01/16 05:57:16;;;;;;;;;;;11.90;40.10;;;;;;2066428;28;19926;-74
2021/01/16 05:58:18;;;;;;;;;;;12.10;44.50;;;;;;2066476;28;19933;-74
2021/01/16 05:59:20;;;;;;;;;;;11.90;43.00;;;;;;2066037;28;19937;-74
2021/01/16 06:00:22;;;;;;;;;;;11.60;39.80;;;;;;2065038;28;20301;-74
2021/01/16 06:01:24;;;;;;;;;;;11.60;43.60;;;;;;2065122;28;19933;-74
2021/01/16 06:02:28;;;;;;;;;;;11.40;40.40;;;;;;2064933;28;19932;-74
2021/01/16 06:03:32;;;;;;;;;;;10.90;43.20;;;;;;2065204;28;20016;-74
2021/01/16 06:04:35;;;;;;;;;;;10.80;42.90;;;;;;2065087;28;19972;-73
2021/01/16 06:05:37;;;;;;;;;;;10.60;42.20;;;;;;2064810;28;19926;-74